Time;durP1;ratioP1;P1;durP2;ratioP2;P2;SDS_P1;SDS_P2;PMS_P1;PMS_P2;Temp;Humidity;BMP_temperature;BMP_pressure;BME280_temperature;BME280_humidity;BME280_pressure;Samples;Min_cycle;Max_cycle;Signal;HPM_P1;HPM_P2
2022/03/12 00:00:27;;;;;;;;;;;9.90;32.60;;;;;;5060574;28;19920;-86
2022/03/12 00:02:52;;;;;;;;;;;10.00;31.60;;;;;;5061711;28;20367;-87
2022/03/12 00:05:18;;;;;;;;;;;9.90;33.00;;;;;;5061384;28;19920;-87
2022/03/12 00:07:44;;;;;;;;;;;9.90;32.00;;;;;;5070810;28;19921;-88
2022/03/12 00:10:13;;;;;;;;;;;10.10;31.40;;;;;;5071552;28;20022;-86
2022/03/12 00:12:41;;;;;;;;;;;10.30;31.20;;;;;;5075740;28;19939;-86
2022/03/12 00:15:10;;;;;;;;;;;10.30;31.90;;;;;;5074674;28;20420;-86
2022/03/12 00:17:36;;;;;;;;;;;10.30;31.10;;;;;;5064349;28;19912;-86
2022/03/12 00:20:04;;;;;;;;;;;10.10;31.90;;;;;;5070128;28;19919;-86
2022/03/12 00:22:29;;;;;;;;;;;10.30;31.70;;;;;;5074043;28;20359;-86
2022/03/12 00:24:57;;;;;;;;;;;10.20;31.80;;;;;;5074666;28;19956;-87
2022/03/12 00:27:22;;;;;;;;;;;10.10;32.10;;;;;;5063099;28;20525;-86
2022/03/12 00:29:48;;;;;;;;;;;10.10;32.70;;;;;;5073426;28;19927;-86
2022/03/12 00:32:14;;;;;;;;;;;10.10;31.50;;;;;;5074557;28;20360;-86
2022/03/12 00:34:39;;;;;;;;;;;10.20;30.90;;;;;;5053486;28;19909;-86
2022/03/12 00:37:05;;;;;;;;;;;10.10;31.50;;;;;;5073677;28;20426;-87
2022/03/12 00:39:30;;;;;;;;;;;10.30;31.30;;;;;;5074240;28;19908;-86
2022/03/12 00:41:56;;;;;;;;;;;10.10;32.30;;;;;;5059670;28;20258;-86
2022/03/12 00:44:21;;;;;;;;;;;10.10;32.10;;;;;;5050892;23;20028;-78
2022/03/12 00:46:47;;;;;;;;;;;10.20;31.40;;;;;;5048413;28;19962;-79
2022/03/12 00:49:12;;;;;;;;;;;10.20;31.30;;;;;;5061959;28;19971;-79
2022/03/12 00:51:38;;;;;;;;;;;10.10;31.70;;;;;;5062543;28;19959;-79
2022/03/12 00:54:04;;;;;;;;;;;10.10;31.50;;;;;;5051759;28;19982;-78
2022/03/12 00:56:29;;;;;;;;;;;10.00;31.60;;;;;;5046490;28;19913;-78
2022/03/12 00:58:56;;;;;;;;;;;10.00;31.60;;;;;;5049343;28;19909;-78
2022/03/12 01:01:23;;;;;;;;;;;10.00;32.30;;;;;;5051503;28;20561;-79
2022/03/12 01:03:48;;;;;;;;;;;10.10;32.10;;;;;;5048379;28;19921;-79
2022/03/12 01:06:14;;;;;;;;;;;10.20;31.30;;;;;;5049401;28;19919;-78
2022/03/12 01:08:40;;;;;;;;;;;10.00;31.80;;;;;;5041128;28;19929;-79
2022/03/12 01:11:07;;;;;;;;;;;9.90;32.60;;;;;;5052778;28;19925;-79
2022/03/12 01:13:33;;;;;;;;;;;10.10;31.70;;;;;;5050522;28;19913;-79
2022/03/12 01:15:58;;;;;;;;;;;10.10;32.20;;;;;;5052399;28;19927;-79
2022/03/12 01:18:25;;;;;;;;;;;10.20;31.50;;;;;;5048590;28;20393;-79
2022/03/12 01:20:51;;;;;;;;;;;10.30;32.10;;;;;;5050326;28;19963;-79
2022/03/12 01:23:17;;;;;;;;;;;10.10;32.30;;;;;;5049359;28;20293;-77
2022/03/12 01:25:43;;;;;;;;;;;10.10;32.10;;;;;;5057298;28;20312;-77
2022/03/12 01:28:10;;;;;;;;;;;10.10;32.60;;;;;;5048942;28;20438;-76
2022/03/12 01:30:35;;;;;;;;;;;10.00;32.80;;;;;;5046201;28;19974;-76
2022/03/12 01:33:01;;;;;;;;;;;10.10;32.30;;;;;;5049067;28;19918;-77
2022/03/12 01:35:26;;;;;;;;;;;10.10;31.80;;;;;;5048441;28;20345;-77
2022/03/12 01:37:52;;;;;;;;;;;10.00;33.00;;;;;;5046103;28;19921;-77
2022/03/12 01:40:18;;;;;;;;;;;10.00;32.40;;;;;;5048278;28;20428;-77
2022/03/12 01:42:44;;;;;;;;;;;10.00;32.50;;;;;;5047682;28;19951;-76
2022/03/12 01:45:13;;;;;;;;;;;10.00;32.40;;;;;;5048599;28;19917;-77
2022/03/12 01:47:40;;;;;;;;;;;9.90;32.30;;;;;;5032378;28;20428;-76
2022/03/12 01:50:06;;;;;;;;;;;9.90;32.10;;;;;;5042592;28;20532;-77
2022/03/12 01:52:31;;;;;;;;;;;9.90;32.50;;;;;;5049321;28;19917;-77
2022/03/12 01:54:57;;;;;;;;;;;9.90;32.70;;;;;;5048671;28;19913;-79
2022/03/12 01:57:23;;;;;;;;;;;9.90;32.50;;;;;;5049666;28;19913;-76
2022/03/12 01:59:48;;;;;;;;;;;9.80;33.00;;;;;;5047519;28;19920;-76
2022/03/12 02:02:15;;;;;;;;;;;9.80;32.90;;;;;;5048766;28;19913;-76
2022/03/12 02:04:48;;;;;;;;;;;9.70;33.30;;;;;;5046369;28;20019;-77
2022/03/12 02:07:14;;;;;;;;;;;9.60;33.50;;;;;;5047670;28;19924;-76
2022/03/12 02:09:39;;;;;;;;;;;9.60;33.10;;;;;;5037647;28;19919;-75
2022/03/12 02:12:05;;;;;;;;;;;9.60;33.50;;;;;;5048607;28;20003;-77
2022/03/12 02:14:30;;;;;;;;;;;9.70;33.20;;;;;;5048286;28;19970;-77
2022/03/12 02:16:56;;;;;;;;;;;9.70;33.70;;;;;;5050123;28;19912;-77
2022/03/12 02:19:23;;;;;;;;;;;9.60;34.10;;;;;;5039347;28;19920;-77
2022/03/12 02:21:55;;;;;;;;;;;9.60;33.00;;;;;;5038437;28;21513;-77
2022/03/12 02:24:22;;;;;;;;;;;9.60;33.40;;;;;;5046242;28;19920;-77
2022/03/12 02:26:48;;;;;;;;;;;9.60;33.50;;;;;;5046726;28;19917;-77
2022/03/12 02:29:18;;;;;;;;;;;9.60;33.70;;;;;;5047509;28;19917;-77
2022/03/12 02:31:48;;;;;;;;;;;9.60;34.30;;;;;;5047009;28;19921;-77
2022/03/12 02:34:14;;;;;;;;;;;9.60;33.70;;;;;;5043925;28;20003;-77
2022/03/12 02:36:40;;;;;;;;;;;9.60;33.60;;;;;;5034692;28;20030;-77
2022/03/12 02:39:06;;;;;;;;;;;9.60;34.50;;;;;;5048116;28;19913;-77
2022/03/12 02:41:31;;;;;;;;;;;9.50;34.60;;;;;;5049789;28;19913;-77
2022/03/12 02:43:57;;;;;;;;;;;9.50;34.00;;;;;;5059951;28;19921;-77
2022/03/12 02:46:28;;;;;;;;;;;9.60;34.00;;;;;;5050251;28;19912;-77
2022/03/12 02:48:53;;;;;;;;;;;9.60;34.00;;;;;;5048043;28;19921;-77
2022/03/12 02:51:21;;;;;;;;;;;9.60;34.00;;;;;;5053855;28;20066;-78
2022/03/12 02:53:49;;;;;;;;;;;9.50;34.60;;;;;;5053289;28;20296;-77
2022/03/12 02:56:15;;;;;;;;;;;9.60;34.30;;;;;;5052104;28;19920;-77
2022/03/12 02:58:41;;;;;;;;;;;9.60;34.10;;;;;;5041014;28;19913;-77
2022/03/12 03:01:06;;;;;;;;;;;9.60;33.80;;;;;;5038157;28;20016;-77
2022/03/12 03:03:35;;;;;;;;;;;9.70;33.90;;;;;;5043396;28;19962;-77
2022/03/12 03:06:00;;;;;;;;;;;9.60;34.40;;;;;;5052633;28;20055;-77
2022/03/12 03:08:26;;;;;;;;;;;9.50;34.80;;;;;;5051808;28;20085;-77
2022/03/12 03:10:54;;;;;;;;;;;9.50;34.60;;;;;;5052845;28;20331;-78
2022/03/12 03:13:20;;;;;;;;;;;9.60;34.40;;;;;;5052055;28;19913;-78
2022/03/12 03:15:49;;;;;;;;;;;9.60;34.40;;;;;;5051490;28;19909;-77
2022/03/12 03:18:16;;;;;;;;;;;9.60;34.70;;;;;;5049670;28;19935;-77
2022/03/12 03:20:42;;;;;;;;;;;9.60;34.80;;;;;;5053584;28;19913;-78
2022/03/12 03:23:11;;;;;;;;;;;9.60;34.40;;;;;;5051249;28;20286;-78
2022/03/12 03:25:37;;;;;;;;;;;9.80;34.40;;;;;;5050218;28;20017;-78
2022/03/12 03:28:03;;;;;;;;;;;9.80;34.40;;;;;;5053460;28;19952;-77
2022/03/12 03:30:32;;;;;;;;;;;9.60;34.70;;;;;;5054661;28;19913;-78
2022/03/12 03:32:57;;;;;;;;;;;9.70;35.20;;;;;;5057886;28;19909;-78
2022/03/12 03:35:22;;;;;;;;;;;9.70;35.00;;;;;;5051337;28;19939;-78
2022/03/12 03:37:48;;;;;;;;;;;9.60;35.20;;;;;;5051469;28;19959;-78
2022/03/12 03:40:13;;;;;;;;;;;9.60;35.00;;;;;;5051796;28;19928;-78
2022/03/12 03:42:39;;;;;;;;;;;9.70;35.10;;;;;;5053136;28;20400;-77
2022/03/12 03:45:04;;;;;;;;;;;9.70;35.20;;;;;;5052523;28;19927;-78
2022/03/12 03:47:30;;;;;;;;;;;9.80;35.20;;;;;;5044052;28;19913;-78
2022/03/12 03:49:55;;;;;;;;;;;9.70;35.40;;;;;;5049573;28;19920;-78
2022/03/12 03:52:21;;;;;;;;;;;9.60;35.90;;;;;;5049307;28;19928;-78
2022/03/12 03:54:46;;;;;;;;;;;9.60;36.00;;;;;;5046609;28;19968;-78
2022/03/12 03:57:16;;;;;;;;;;;9.70;36.60;;;;;;5052858;28;19963;-78
2022/03/12 03:59:41;;;;;;;;;;;9.60;36.50;;;;;;5047929;28;19917;-78
2022/03/12 04:02:07;;;;;;;;;;;9.50;37.30;;;;;;5049884;28;19920;-78
2022/03/12 04:04:35;;;;;;;;;;;9.50;36.40;;;;;;5052307;28;19948;-78
2022/03/12 04:07:01;;;;;;;;;;;9.60;36.50;;;;;;5051650;28;20273;-78
2022/03/12 04:09:27;;;;;;;;;;;9.50;36.90;;;;;;5048177;28;19917;-78
2022/03/12 04:11:53;;;;;;;;;;;9.50;36.70;;;;;;5043879;28;20300;-78
2022/03/12 04:14:18;;;;;;;;;;;9.50;37.00;;;;;;5044268;28;19956;-78
2022/03/12 04:16:43;;;;;;;;;;;9.50;36.70;;;;;;5049771;28;20360;-78
2022/03/12 04:19:10;;;;;;;;;;;9.40;36.90;;;;;;5040877;28;20346;-78
2022/03/12 04:21:35;;;;;;;;;;;9.40;37.20;;;;;;5038968;28;19959;-78
2022/03/12 04:24:01;;;;;;;;;;;9.30;37.40;;;;;;5039740;28;19917;-77
2022/03/12 04:26:27;;;;;;;;;;;9.30;37.00;;;;;;5042016;28;20016;-78
2022/03/12 04:28:53;;;;;;;;;;;9.30;37.20;;;;;;5044413;28;19916;-78
2022/03/12 04:31:19;;;;;;;;;;;9.20;37.90;;;;;;5049745;28;19913;-78
2022/03/12 04:33:45;;;;;;;;;;;9.10;38.00;;;;;;5049893;28;19912;-78
2022/03/12 04:36:12;;;;;;;;;;;9.10;38.00;;;;;;5049703;28;20010;-78
2022/03/12 04:38:38;;;;;;;;;;;9.10;38.70;;;;;;5049923;28;20261;-78
2022/03/12 04:41:04;;;;;;;;;;;9.30;38.20;;;;;;5048304;28;19927;-77
2022/03/12 04:43:30;;;;;;;;;;;9.10;39.30;;;;;;5047156;28;19923;-78
2022/03/12 04:45:58;;;;;;;;;;;9.20;38.40;;;;;;5036608;28;19920;-77
2022/03/12 04:48:23;;;;;;;;;;;9.20;38.60;;;;;;5052020;28;19916;-78
2022/03/12 04:50:50;;;;;;;;;;;9.40;38.50;;;;;;5048974;28;19913;-77
2022/03/12 04:53:15;;;;;;;;;;;9.30;38.80;;;;;;5051496;28;20151;-78
2022/03/12 04:55:41;;;;;;;;;;;9.20;39.30;;;;;;5050777;28;20392;-78
2022/03/12 04:58:07;;;;;;;;;;;9.20;39.70;;;;;;5051952;28;19924;-77
2022/03/12 05:00:35;;;;;;;;;;;9.20;39.30;;;;;;5057110;28;19952;-80
2022/03/12 05:03:00;;;;;;;;;;;9.30;39.30;;;;;;5052588;28;19908;-78
2022/03/12 05:05:26;;;;;;;;;;;9.30;39.30;;;;;;5051820;28;20385;-78
2022/03/12 05:07:51;;;;;;;;;;;9.10;39.70;;;;;;5043902;28;19921;-78
2022/03/12 05:10:17;;;;;;;;;;;9.20;39.90;;;;;;5049954;28;20261;-79
2022/03/12 05:12:47;;;;;;;;;;;9.20;39.70;;;;;;5052025;28;19924;-78
2022/03/12 05:15:14;;;;;;;;;;;9.30;39.70;;;;;;5050079;28;20373;-78
2022/03/12 05:17:40;;;;;;;;;;;9.30;39.90;;;;;;5050516;28;19920;-78
2022/03/12 05:20:07;;;;;;;;;;;9.30;40.40;;;;;;5049844;28;20008;-78
2022/03/12 05:22:32;;;;;;;;;;;9.20;40.80;;;;;;5051697;28;20556;-78
2022/03/12 05:24:58;;;;;;;;;;;9.10;40.50;;;;;;5051488;28;20015;-78
2022/03/12 05:27:25;;;;;;;;;;;9.30;40.70;;;;;;5051360;28;19960;-78
2022/03/12 05:29:51;;;;;;;;;;;9.30;40.50;;;;;;5050475;28;19971;-78
2022/03/12 05:32:17;;;;;;;;;;;9.30;40.60;;;;;;5051221;28;20373;-77
2022/03/12 05:34:42;;;;;;;;;;;9.30;40.60;;;;;;5042513;28;19956;-78
2022/03/12 05:37:09;;;;;;;;;;;9.10;41.00;;;;;;5035334;28;19921;-78
2022/03/12 05:39:35;;;;;;;;;;;9.10;41.40;;;;;;5049615;28;19958;-77
2022/03/12 05:42:03;;;;;;;;;;;9.20;41.20;;;;;;5050309;28;20008;-78
2022/03/12 05:44:29;;;;;;;;;;;9.10;41.40;;;;;;5051095;28;19916;-78
2022/03/12 05:46:54;;;;;;;;;;;9.00;41.70;;;;;;5050261;28;19919;-78
2022/03/12 05:49:20;;;;;;;;;;;9.00;42.10;;;;;;5050786;28;19935;-78
2022/03/12 05:51:45;;;;;;;;;;;9.10;42.20;;;;;;5051458;28;19919;-78
2022/03/12 05:54:11;;;;;;;;;;;9.00;42.20;;;;;;5049598;28;20012;-78
2022/03/12 05:56:40;;;;;;;;;;;9.10;42.60;;;;;;5034968;28;20427;-79
2022/03/12 05:59:06;;;;;;;;;;;9.10;43.00;;;;;;5055975;28;19916;-78
2022/03/12 06:01:31;;;;;;;;;;;9.10;43.00;;;;;;5051441;28;20332;-78
2022/03/12 06:03:59;;;;;;;;;;;9.10;43.20;;;;;;5038196;28;19913;-78
2022/03/12 06:06:27;;;;;;;;;;;9.00;43.70;;;;;;5056721;28;19913;-79
2022/03/12 06:08:54;;;;;;;;;;;9.00;43.70;;;;;;5042350;28;19993;-78
2022/03/12 06:11:20;;;;;;;;;;;8.80;44.30;;;;;;5049495;28;19913;-78
2022/03/12 06:13:59;;;;;;;;;;;8.80;44.60;;;;;;5050510;28;19925;-77
2022/03/12 06:16:25;;;;;;;;;;;8.70;45.30;;;;;;5044400;28;20281;-78
2022/03/12 06:18:54;;;;;;;;;;;8.70;45.70;;;;;;5047482;28;19947;-78
2022/03/12 06:21:20;;;;;;;;;;;8.60;46.90;;;;;;5049655;28;20015;-78
2022/03/12 06:23:45;;;;;;;;;;;8.80;46.30;;;;;;5050332;28;19974;-78
2022/03/12 06:26:14;;;;;;;;;;;8.70;46.90;;;;;;5049524;28;19913;-78
2022/03/12 06:28:41;;;;;;;;;;;8.60;47.20;;;;;;5050313;28;19986;-79
2022/03/12 06:31:07;;;;;;;;;;;8.60;47.80;;;;;;5050211;28;20031;-78
2022/03/12 06:33:34;;;;;;;;;;;8.60;47.90;;;;;;5048525;28;19913;-78
2022/03/12 06:36:01;;;;;;;;;;;8.50;48.40;;;;;;5050652;28;19917;-77
2022/03/12 06:38:26;;;;;;;;;;;8.80;48.40;;;;;;5050216;28;19936;-78
2022/03/12 06:40:56;;;;;;;;;;;8.80;48.10;;;;;;5050155;28;19924;-78
2022/03/12 06:43:21;;;;;;;;;;;8.70;48.60;;;;;;5038247;28;20081;-78
2022/03/12 06:45:48;;;;;;;;;;;8.70;49.10;;;;;;5045518;28;19988;-78
2022/03/12 06:48:13;;;;;;;;;;;8.80;48.90;;;;;;5046090;28;20000;-78
2022/03/12 06:50:39;;;;;;;;;;;8.80;49.70;;;;;;5050179;28;19956;-79
2022/03/12 06:53:05;;;;;;;;;;;8.80;49.70;;;;;;5049185;28;19916;-78
2022/03/12 06:55:31;;;;;;;;;;;8.90;49.90;;;;;;5062945;28;19913;-78
2022/03/12 06:57:58;;;;;;;;;;;9.10;50.10;;;;;;5051130;28;20011;-78
2022/03/12 07:00:25;;;;;;;;;;;9.00;50.20;;;;;;5052300;28;19921;-78
2022/03/12 07:02:50;;;;;;;;;;;9.00;50.50;;;;;;5045003;28;19912;-77
2022/03/12 07:05:16;;;;;;;;;;;9.10;50.80;;;;;;5049014;28;19921;-78
2022/03/12 07:07:42;;;;;;;;;;;9.10;51.00;;;;;;5047590;28;19923;-78
2022/03/12 07:10:08;;;;;;;;;;;9.10;51.30;;;;;;5046882;28;19995;-78
2022/03/12 07:12:34;;;;;;;;;;;9.30;51.50;;;;;;5049733;28;19958;-78
2022/03/12 07:15:00;;;;;;;;;;;9.30;51.80;;;;;;5047730;28;19917;-78
2022/03/12 07:17:25;;;;;;;;;;;9.30;51.80;;;;;;5046071;28;19952;-78
2022/03/12 07:19:51;;;;;;;;;;;9.50;51.60;;;;;;5046450;28;19996;-78
2022/03/12 07:22:16;;;;;;;;;;;9.50;51.90;;;;;;5037422;28;19913;-79
2022/03/12 07:24:42;;;;;;;;;;;9.50;52.00;;;;;;5048114;28;19927;-78
2022/03/12 07:27:08;;;;;;;;;;;9.50;52.30;;;;;;5045486;28;19917;-79
2022/03/12 07:29:34;;;;;;;;;;;9.70;51.90;;;;;;5046220;28;19924;-78
2022/03/12 07:31:59;;;;;;;;;;;9.90;51.10;;;;;;5048284;28;20011;-78
2022/03/12 07:34:25;;;;;;;;;;;9.80;51.80;;;;;;5044993;28;19913;-78
2022/03/12 07:36:51;;;;;;;;;;;9.90;51.70;;;;;;5052545;28;20352;-78
2022/03/12 07:39:16;;;;;;;;;;;9.90;52.30;;;;;;5051741;28;20316;-79
2022/03/12 07:41:41;;;;;;;;;;;9.80;52.90;;;;;;5055270;28;20388;-80
2022/03/12 07:44:07;;;;;;;;;;;9.90;52.90;;;;;;5055719;28;19967;-80
2022/03/12 07:46:33;;;;;;;;;;;9.80;53.00;;;;;;5053624;28;19970;-80
2022/03/12 07:48:59;;;;;;;;;;;9.90;53.20;;;;;;5048717;28;20019;-80
2022/03/12 07:51:26;;;;;;;;;;;9.90;53.50;;;;;;5048296;28;19956;-80
2022/03/12 07:53:52;;;;;;;;;;;10.00;53.70;;;;;;5053215;28;19913;-79
2022/03/12 07:56:17;;;;;;;;;;;10.10;53.40;;;;;;5058717;28;19923;-79
2022/03/12 07:58:43;;;;;;;;;;;10.00;54.00;;;;;;5057680;28;20235;-79
2022/03/12 08:01:08;;;;;;;;;;;9.90;54.60;;;;;;5053127;28;19983;-80
2022/03/12 08:03:36;;;;;;;;;;;9.90;54.70;;;;;;5054900;28;19913;-80
2022/03/12 08:06:02;;;;;;;;;;;10.00;55.00;;;;;;5053886;28;19992;-80
2022/03/12 08:08:27;;;;;;;;;;;10.30;54.70;;;;;;5047153;28;19917;-80
2022/03/12 08:13:37;;;;;;;;;;;10.50;54.30;;;;;;5056568;28;19996;-80
2022/03/12 08:16:03;;;;;;;;;;;10.50;54.80;;;;;;5053318;28;20368;-80
2022/03/12 08:18:29;;;;;;;;;;;10.60;54.80;;;;;;5045524;28;19924;-80
2022/03/12 08:20:54;;;;;;;;;;;10.80;54.10;;;;;;5043102;28;20373;-80
2022/03/12 08:23:20;;;;;;;;;;;10.60;54.80;;;;;;5054969;28;19916;-80
2022/03/12 08:25:45;;;;;;;;;;;10.60;55.10;;;;;;5054481;28;19913;-81
2022/03/12 08:28:11;;;;;;;;;;;10.60;56.10;;;;;;5050815;28;19914;-80
2022/03/12 08:30:37;;;;;;;;;;;10.70;55.60;;;;;;5046603;28;19932;-81
2022/03/12 08:33:03;;;;;;;;;;;10.90;55.30;;;;;;5053542;28;20452;-81
2022/03/12 08:35:28;;;;;;;;;;;10.90;55.10;;;;;;5054989;28;19913;-80
2022/03/12 08:37:54;;;;;;;;;;;11.00;55.00;;;;;;5051524;28;20357;-80
2022/03/12 08:40:20;;;;;;;;;;;10.90;55.00;;;;;;5048815;28;19921;-81
2022/03/12 08:42:46;;;;;;;;;;;10.80;55.20;;;;;;5051690;28;19913;-81
2022/03/12 08:45:11;;;;;;;;;;;11.00;55.30;;;;;;5051845;28;19921;-83
2022/03/12 08:47:38;;;;;;;;;;;11.00;55.40;;;;;;5051314;28;20447;-82
2022/03/12 08:50:06;;;;;;;;;;;11.10;54.80;;;;;;5046706;28;19925;-81
2022/03/12 08:52:32;;;;;;;;;;;11.20;54.60;;;;;;5042888;28;19999;-80
2022/03/12 08:54:57;;;;;;;;;;;11.20;54.70;;;;;;5037856;28;20406;-80
2022/03/12 08:57:23;;;;;;;;;;;11.20;54.90;;;;;;5051777;28;19995;-78
2022/03/12 08:59:49;;;;;;;;;;;11.40;54.40;;;;;;5051088;28;20368;-80
2022/03/12 09:02:14;;;;;;;;;;;11.30;55.20;;;;;;5057012;28;19912;-80
2022/03/12 09:04:40;;;;;;;;;;;11.20;55.50;;;;;;5048305;28;19913;-81
2022/03/12 09:07:05;;;;;;;;;;;11.30;55.60;;;;;;5049032;28;20345;-82
2022/03/12 09:09:31;;;;;;;;;;;11.50;55.00;;;;;;5049113;28;19923;-81
2022/03/12 09:11:56;;;;;;;;;;;11.60;55.10;;;;;;5049795;28;20055;-80
2022/03/12 09:14:22;;;;;;;;;;;11.70;55.00;;;;;;5050068;28;20050;-80
2022/03/12 09:16:48;;;;;;;;;;;11.80;54.90;;;;;;5047334;28;20297;-80
2022/03/12 09:19:13;;;;;;;;;;;11.80;55.80;;;;;;5047130;28;19913;-80
2022/03/12 09:21:39;;;;;;;;;;;11.80;55.80;;;;;;5049647;28;20058;-81
2022/03/12 09:24:06;;;;;;;;;;;11.90;55.80;;;;;;5046762;28;19923;-81
2022/03/12 09:26:31;;;;;;;;;;;11.90;55.90;;;;;;5050976;28;19975;-81
2022/03/12 09:28:57;;;;;;;;;;;12.00;55.90;;;;;;5048332;28;20387;-82
2022/03/12 09:31:24;;;;;;;;;;;12.00;56.30;;;;;;5050400;28;19958;-78
2022/03/12 09:33:49;;;;;;;;;;;12.00;55.90;;;;;;5048938;28;19924;-77
2022/03/12 09:36:16;;;;;;;;;;;12.30;55.80;;;;;;5048981;28;19909;-78
2022/03/12 09:38:41;;;;;;;;;;;12.20;54.90;;;;;;5050727;28;19917;-79
2022/03/12 09:41:07;;;;;;;;;;;12.10;55.00;;;;;;5049076;28;19919;-80
2022/03/12 09:43:32;;;;;;;;;;;12.20;54.50;;;;;;5041190;28;19951;-77
2022/03/12 09:45:59;;;;;;;;;;;12.20;54.40;;;;;;5034646;28;19909;-77
2022/03/12 09:48:25;;;;;;;;;;;12.10;54.80;;;;;;5032641;28;19956;-78
2022/03/12 09:50:50;;;;;;;;;;;12.20;54.70;;;;;;5031389;28;19963;-78
2022/03/12 09:53:16;;;;;;;;;;;12.20;54.30;;;;;;5045809;28;19913;-77
2022/03/12 09:55:42;;;;;;;;;;;12.30;54.50;;;;;;5051699;28;19915;-78
2022/03/12 09:58:07;;;;;;;;;;;12.30;54.20;;;;;;5049842;28;19916;-78
2022/03/12 10:00:33;;;;;;;;;;;12.40;54.30;;;;;;5049525;28;19974;-77
2022/03/12 10:02:58;;;;;;;;;;;12.50;54.00;;;;;;5049586;28;19921;-78
2022/03/12 10:05:24;;;;;;;;;;;12.50;53.50;;;;;;5039593;28;20298;-77
2022/03/12 10:07:49;;;;;;;;;;;12.50;53.70;;;;;;5030675;28;19962;-78
2022/03/12 10:10:17;;;;;;;;;;;12.40;54.60;;;;;;5043606;28;19912;-77
2022/03/12 10:12:44;;;;;;;;;;;12.50;54.00;;;;;;5047735;28;20408;-77
2022/03/12 10:15:11;;;;;;;;;;;12.50;54.20;;;;;;5050130;28;19909;-79
2022/03/12 10:17:37;;;;;;;;;;;12.40;53.80;;;;;;5050337;28;19909;-78
2022/03/12 10:20:05;;;;;;;;;;;12.40;54.10;;;;;;5049611;28;20489;-78
2022/03/12 10:22:32;;;;;;;;;;;12.30;54.10;;;;;;5050602;28;19912;-78
2022/03/12 10:24:57;;;;;;;;;;;12.30;53.50;;;;;;5046999;28;19915;-78
2022/03/12 10:27:23;;;;;;;;;;;12.50;53.90;;;;;;5047201;28;20285;-78
2022/03/12 10:29:48;;;;;;;;;;;12.80;52.50;;;;;;5051672;28;19917;-78
2022/03/12 10:32:28;;;;;;;;;;;12.80;52.40;;;;;;5064046;28;19913;-78
2022/03/12 10:34:56;;;;;;;;;;;12.80;52.60;;;;;;5043357;28;19951;-79
2022/03/12 10:37:23;;;;;;;;;;;13.10;51.70;;;;;;5045814;28;19931;-77
2022/03/12 10:39:59;;;;;;;;;;;13.10;52.00;;;;;;5043944;28;19924;-77
2022/03/12 10:42:24;;;;;;;;;;;13.10;52.10;;;;;;5064014;28;19939;-77
2022/03/12 10:44:50;;;;;;;;;;;13.30;51.50;;;;;;5063268;28;19944;-77
2022/03/12 10:47:23;;;;;;;;;;;13.20;51.30;;;;;;5047415;28;19970;-77
2022/03/12 10:49:57;;;;;;;;;;;13.20;51.80;;;;;;5047640;28;19920;-78
2022/03/12 10:52:31;;;;;;;;;;;13.40;51.30;;;;;;5049417;28;19931;-77
2022/03/12 10:54:58;;;;;;;;;;;13.40;51.10;;;;;;5048614;28;19913;-76
2022/03/12 10:57:24;;;;;;;;;;;13.60;51.00;;;;;;5045746;28;20050;-76
2022/03/12 10:59:54;;;;;;;;;;;13.40;51.00;;;;;;5035157;28;20322;-77
2022/03/12 11:02:19;;;;;;;;;;;13.30;51.60;;;;;;5035539;28;20139;-77
2022/03/12 11:04:45;;;;;;;;;;;13.30;51.80;;;;;;5028952;28;20334;-77
2022/03/12 11:07:24;;;;;;;;;;;13.20;51.50;;;;;;5028852;28;20342;-77
2022/03/12 11:09:50;;;;;;;;;;;13.30;51.80;;;;;;5043007;28;19917;-77
2022/03/12 11:12:30;;;;;;;;;;;13.20;51.70;;;;;;5058156;28;20000;-79
2022/03/12 11:15:05;;;;;;;;;;;13.40;51.20;;;;;;5047975;28;19924;-78
2022/03/12 11:17:43;;;;;;;;;;;13.50;50.60;;;;;;5054819;28;19963;-80
2022/03/12 11:20:17;;;;;;;;;;;13.60;50.80;;;;;;5052912;28;19940;-80
2022/03/12 11:22:43;;;;;;;;;;;13.60;51.80;;;;;;5056963;28;20460;-81
2022/03/12 11:25:10;;;;;;;;;;;13.60;50.80;;;;;;5052873;28;19971;-78
2022/03/12 11:27:35;;;;;;;;;;;13.50;50.90;;;;;;5055352;28;20216;-81
2022/03/12 11:30:08;;;;;;;;;;;13.40;51.70;;;;;;5044520;28;19993;-80
2022/03/12 11:32:35;;;;;;;;;;;13.50;52.40;;;;;;5055508;28;20365;-78
2022/03/12 11:35:10;;;;;;;;;;;13.60;51.90;;;;;;5047073;28;19936;-78
2022/03/12 11:37:37;;;;;;;;;;;13.60;51.70;;;;;;5054284;28;19976;-77
2022/03/12 11:40:04;;;;;;;;;;;13.50;52.30;;;;;;5054371;28;19986;-78
2022/03/12 11:42:34;;;;;;;;;;;13.50;51.90;;;;;;5057554;28;19959;-77
2022/03/12 11:45:01;;;;;;;;;;;13.40;52.20;;;;;;5042171;28;20193;-78
2022/03/12 11:47:27;;;;;;;;;;;13.40;52.50;;;;;;5053263;28;19913;-78
2022/03/12 11:49:55;;;;;;;;;;;13.50;52.50;;;;;;5054269;28;19921;-78
2022/03/12 11:52:21;;;;;;;;;;;13.60;52.10;;;;;;5044046;28;20075;-77
2022/03/12 11:54:47;;;;;;;;;;;13.80;51.50;;;;;;5038993;28;19960;-76
2022/03/12 11:57:19;;;;;;;;;;;13.80;51.60;;;;;;5041652;28;19913;-77
2022/03/12 11:59:44;;;;;;;;;;;14.00;51.10;;;;;;5045582;28;19913;-78
2022/03/12 12:02:29;;;;;;;;;;;14.00;51.10;;;;;;5070873;28;19984;-78
2022/03/12 12:04:56;;;;;;;;;;;14.10;50.60;;;;;;5048597;28;20693;-77
2022/03/12 12:07:23;;;;;;;;;;;14.00;50.70;;;;;;5049307;28;20336;-77
2022/03/12 12:09:49;;;;;;;;;;;14.00;51.40;;;;;;5050104;28;19916;-78
2022/03/12 12:12:15;;;;;;;;;;;14.10;50.30;;;;;;5053176;28;20159;-78
2022/03/12 12:14:41;;;;;;;;;;;14.20;50.10;;;;;;5050139;28;19912;-77
2022/03/12 12:17:07;;;;;;;;;;;14.30;50.10;;;;;;5046293;28;19924;-78
2022/03/12 12:19:34;;;;;;;;;;;14.50;49.60;;;;;;5066420;28;19917;-77
2022/03/12 12:22:00;;;;;;;;;;;14.50;49.50;;;;;;5053983;28;20031;-77
2022/03/12 12:24:26;;;;;;;;;;;14.50;49.60;;;;;;5041062;28;20340;-78
2022/03/12 12:27:02;;;;;;;;;;;14.50;49.40;;;;;;5048673;28;19917;-79
2022/03/12 12:29:46;;;;;;;;;;;14.50;49.40;;;;;;5056239;28;19929;-79
2022/03/12 12:32:13;;;;;;;;;;;14.60;49.20;;;;;;5055969;28;19990;-78
2022/03/12 12:34:57;;;;;;;;;;;14.70;48.70;;;;;;5047077;28;21050;-78
2022/03/12 12:37:41;;;;;;;;;;;14.80;49.20;;;;;;5047201;28;20016;-78
2022/03/12 12:40:13;;;;;;;;;;;14.80;49.70;;;;;;5040381;28;19913;-78
2022/03/12 12:42:40;;;;;;;;;;;15.00;48.50;;;;;;5047489;28;19979;-78
2022/03/12 12:45:07;;;;;;;;;;;15.00;48.40;;;;;;5048541;28;19928;-79
2022/03/12 12:47:33;;;;;;;;;;;14.90;48.60;;;;;;5046487;28;19917;-78
2022/03/12 12:49:58;;;;;;;;;;;15.00;48.40;;;;;;5050411;28;19985;-78
2022/03/12 12:52:29;;;;;;;;;;;15.00;48.70;;;;;;5045187;28;19931;-78
2022/03/12 12:54:57;;;;;;;;;;;14.80;48.70;;;;;;5046633;28;19917;-78
2022/03/12 12:57:41;;;;;;;;;;;15.00;48.80;;;;;;5050979;28;19916;-78
2022/03/12 13:00:19;;;;;;;;;;;15.10;48.60;;;;;;5042517;28;19917;-78
2022/03/12 13:02:45;;;;;;;;;;;15.10;48.20;;;;;;5042278;28;19912;-79
2022/03/12 13:05:12;;;;;;;;;;;15.20;47.70;;;;;;5051442;28;19919;-78
2022/03/12 13:07:48;;;;;;;;;;;15.30;47.90;;;;;;5049093;28;19913;-79
2022/03/12 13:10:24;;;;;;;;;;;15.60;47.50;;;;;;5052453;28;19924;-79
2022/03/12 13:12:49;;;;;;;;;;;15.40;47.50;;;;;;5050906;28;19912;-78
2022/03/12 13:15:18;;;;;;;;;;;15.50;47.20;;;;;;5037498;28;19913;-78
2022/03/12 13:17:44;;;;;;;;;;;15.50;47.50;;;;;;5040385;28;19921;-78
2022/03/12 13:20:28;;;;;;;;;;;15.50;47.60;;;;;;5032427;28;19913;-78
2022/03/12 13:22:57;;;;;;;;;;;15.70;47.50;;;;;;5044355;28;19920;-77
2022/03/12 13:25:23;;;;;;;;;;;15.40;48.10;;;;;;5045789;28;19912;-76
2022/03/12 13:27:58;;;;;;;;;;;15.30;48.70;;;;;;5047274;28;20542;-78
2022/03/12 13:30:25;;;;;;;;;;;15.40;48.40;;;;;;5052046;28;20380;-77
2022/03/12 13:32:55;;;;;;;;;;;15.50;47.40;;;;;;5048316;28;19913;-77
2022/03/12 13:35:26;;;;;;;;;;;15.60;47.50;;;;;;5047329;28;19928;-77
2022/03/12 13:37:52;;;;;;;;;;;15.60;47.20;;;;;;5040872;28;19920;-77
2022/03/12 13:40:20;;;;;;;;;;;15.70;47.60;;;;;;5049159;28;19917;-77
2022/03/12 13:42:47;;;;;;;;;;;15.60;47.20;;;;;;5046221;28;19912;-78
2022/03/12 13:45:13;;;;;;;;;;;15.50;47.70;;;;;;5051426;28;19928;-77
2022/03/12 13:47:39;;;;;;;;;;;15.50;48.00;;;;;;5048660;28;19959;-77
2022/03/12 13:50:04;;;;;;;;;;;15.50;47.90;;;;;;5045856;28;19921;-77
2022/03/12 13:52:30;;;;;;;;;;;15.50;47.50;;;;;;5045305;28;19959;-77
2022/03/12 13:55:03;;;;;;;;;;;15.40;48.60;;;;;;5035908;28;19924;-80
2022/03/12 13:57:29;;;;;;;;;;;15.30;48.50;;;;;;5048583;28;19924;-79
2022/03/12 14:00:05;;;;;;;;;;;15.30;48.20;;;;;;5052723;28;19917;-80
2022/03/12 14:02:32;;;;;;;;;;;15.30;48.60;;;;;;5045813;28;19920;-79
2022/03/12 14:05:02;;;;;;;;;;;15.30;48.30;;;;;;5046805;28;20321;-78
2022/03/12 14:07:28;;;;;;;;;;;15.40;48.10;;;;;;5045741;28;20297;-77
2022/03/12 14:09:54;;;;;;;;;;;15.40;47.80;;;;;;5047395;28;19917;-79
2022/03/12 14:12:24;;;;;;;;;;;15.30;48.60;;;;;;5046639;28;19924;-78
2022/03/12 14:14:50;;;;;;;;;;;15.30;48.40;;;;;;5041885;28;20473;-78
2022/03/12 14:17:16;;;;;;;;;;;15.20;48.60;;;;;;5051152;28;19913;-78
2022/03/12 14:19:41;;;;;;;;;;;15.10;48.80;;;;;;5037821;28;19963;-78
2022/03/12 14:22:07;;;;;;;;;;;15.30;47.90;;;;;;5036294;28;19917;-78
2022/03/12 14:24:37;;;;;;;;;;;15.20;48.40;;;;;;5048079;28;19916;-79